createdAt,value
2018-12-16T00:01:32.682Z,99503.70
2018-12-16T00:04:01.849Z,99494.45
2018-12-16T00:06:30.838Z,99492.91
2018-12-16T00:09:00.043Z,99496.19
2018-12-16T00:11:28.696Z,99495.33
2018-12-16T00:13:57.338Z,99493.86
2018-12-16T00:16:26.351Z,99491.70
2018-12-16T00:18:55.314Z,99487.94
2018-12-16T00:21:24.426Z,99480.55
2018-12-16T00:23:53.384Z,99477.75
2018-12-16T00:26:22.565Z,99482.81
2018-12-16T00:28:51.587Z,99486.27
2018-12-16T00:31:20.471Z,99483.88
2018-12-16T00:33:49.646Z,99485.70
2018-12-16T00:36:18.567Z,99480.52
2018-12-16T00:38:47.833Z,99475.84
2018-12-16T00:41:16.765Z,99476.59
2018-12-16T00:43:45.512Z,99474.03
2018-12-16T00:46:14.199Z,99494.88
2018-12-16T00:48:43.232Z,99487.42
2018-12-16T00:51:12.415Z,99479.33
2018-12-16T00:53:41.415Z,99495.73
2018-12-16T00:56:16.844Z,99491.96
2018-12-16T00:58:45.867Z,99494.37
2018-12-16T01:01:14.683Z,99493.80
2018-12-16T01:03:43.419Z,99485.89
2018-12-16T01:06:12.347Z,99477.16
2018-12-16T01:08:41.425Z,99480.06
2018-12-16T01:11:10.508Z,99473.12
2018-12-16T01:13:39.410Z,99468.47
2018-12-16T01:16:08.397Z,99465.84
2018-12-16T01:18:37.154Z,99476.15
2018-12-16T01:21:06.191Z,99476.60
2018-12-16T01:23:35.166Z,99469.15
2018-12-16T01:26:03.877Z,99456.80
2018-12-16T01:28:32.862Z,99458.05
2018-12-16T01:31:01.851Z,99461.13
2018-12-16T01:33:30.598Z,99462.73
2018-12-16T01:35:59.729Z,99460.44
2018-12-16T01:38:28.736Z,99442.50
2018-12-16T01:40:57.621Z,99442.80
2018-12-16T01:43:26.609Z,99434.65
2018-12-16T01:45:55.498Z,99437.55
2018-12-16T01:48:24.485Z,99440.06
2018-12-16T01:50:59.741Z,99440.83
2018-12-16T01:53:28.786Z,99434.28
2018-12-16T01:55:57.414Z,99436.05
2018-12-16T01:58:26.079Z,99427.80
2018-12-16T02:00:55.112Z,99424.41
2018-12-16T02:03:24.090Z,99422.09
2018-12-16T02:05:53.015Z,99425.17
2018-12-16T02:08:21.786Z,99419.73
2018-12-16T02:10:50.964Z,99422.95
2018-12-16T02:13:19.971Z,99421.05
2018-12-16T02:15:48.766Z,99416.55
2018-12-16T02:18:17.710Z,99431.58
2018-12-16T02:20:46.426Z,99428.80
2018-12-16T02:23:16.355Z,99431.31
2018-12-16T02:25:45.078Z,99442.64
2018-12-16T02:28:14.120Z,99444.34
2018-12-16T02:30:43.100Z,99435.89
2018-12-16T02:33:12.025Z,99428.99
2018-12-16T02:35:40.904Z,99427.04
2018-12-16T02:38:09.900Z,99422.52
2018-12-16T02:40:38.641Z,99422.06
2018-12-16T02:43:07.723Z,99414.69
2018-12-16T02:45:36.387Z,99411.02
2018-12-16T02:48:05.606Z,99402.41
2018-12-16T02:50:34.549Z,99401.94
2018-12-16T02:53:04.692Z,99408.14
2018-12-16T02:55:33.728Z,99409.26
2018-12-16T02:58:02.489Z,99405.90
2018-12-16T03:00:31.624Z,99397.67
2018-12-16T03:03:00.301Z,99397.13
2018-12-16T03:05:29.088Z,99398.43
2018-12-16T03:07:58.131Z,99389.70
2018-12-16T03:10:26.869Z,99390.17
2018-12-16T03:12:55.909Z,99391.14
2018-12-16T03:15:25.102Z,99397.45
2018-12-16T03:17:54.025Z,99393.72
2018-12-16T03:20:22.767Z,99398.79
2018-12-16T03:22:51.492Z,99398.84
2018-12-16T03:25:20.473Z,99403.58
2018-12-16T03:27:49.465Z,99405.45
2018-12-16T03:30:18.116Z,99406.55
2018-12-16T03:32:46.806Z,99402.03
2018-12-16T03:35:15.768Z,99396.10
2018-12-16T03:37:44.915Z,99393.27
2018-12-16T03:40:13.926Z,99404.59
2018-12-16T03:42:42.919Z,99406.92
2018-12-16T03:45:12.019Z,99396.80
2018-12-16T03:47:41.121Z,99394.74
2018-12-16T03:50:10.025Z,99386.84
2018-12-16T03:52:39.094Z,99406.12
2018-12-16T03:55:08.193Z,99407.66
2018-12-16T03:57:37.287Z,99409.79
2018-12-16T04:00:06.982Z,99397.18
2018-12-16T04:02:36.187Z,99397.23
2018-12-16T04:05:05.326Z,99392.85
2018-12-16T04:07:34.130Z,99392.30
2018-12-16T04:10:03.023Z,99393.48
2018-12-16T04:12:32.058Z,99398.27
2018-12-16T04:15:01.055Z,99402.72
2018-12-16T04:17:29.809Z,99393.78
2018-12-16T04:19:58.554Z,99394.71
2018-12-16T04:22:27.429Z,99391.16
2018-12-16T04:24:56.074Z,99397.95
2018-12-16T04:27:24.754Z,99391.31
2018-12-16T04:29:54.078Z,99389.23
2018-12-16T04:32:23.102Z,99385.70
2018-12-16T04:34:52.108Z,99382.45
2018-12-16T04:37:20.871Z,99377.50
2018-12-16T04:39:49.620Z,99371.38
2018-12-16T04:42:18.663Z,99371.09
2018-12-16T04:44:47.880Z,99361.76
2018-12-16T04:47:16.861Z,99357.64
2018-12-16T04:49:45.839Z,99352.83
2018-12-16T04:52:14.679Z,99346.49
2018-12-16T04:54:43.381Z,99347.77
2018-12-16T04:57:12.500Z,99346.07
2018-12-16T04:59:41.158Z,99346.13
2018-12-16T05:02:09.850Z,99352.56
2018-12-16T05:04:38.489Z,99350.28
2018-12-16T05:07:07.558Z,99339.33
2018-12-16T05:09:36.555Z,99345.75
2018-12-16T05:12:05.560Z,99343.31
2018-12-16T05:14:34.555Z,99349.73
2018-12-16T05:17:03.627Z,99353.27
2018-12-16T05:19:32.635Z,99353.07
2018-12-16T05:22:01.436Z,99359.56
2018-12-16T05:24:30.354Z,99365.65
2018-12-16T05:26:59.088Z,99368.73
2018-12-16T05:29:31.996Z,99353.63
2018-12-16T05:32:00.810Z,99352.23
2018-12-16T05:34:29.631Z,99356.11
2018-12-16T05:36:58.287Z,99354.66
2018-12-16T05:39:27.347Z,99356.14
2018-12-16T05:41:56.310Z,99353.47
2018-12-16T05:44:25.093Z,99353.53
2018-12-16T05:46:53.834Z,99353.13
2018-12-16T05:49:22.667Z,99354.13
2018-12-16T05:51:51.689Z,99361.58
2018-12-16T05:54:20.413Z,99365.97
2018-12-16T05:56:49.101Z,99361.58
2018-12-16T05:59:18.180Z,99358.63
2018-12-16T06:01:47.158Z,99350.37
2018-12-16T06:04:15.826Z,99362.61
2018-12-16T06:06:44.851Z,99354.23
2018-12-16T06:09:13.850Z,99347.52
2018-12-16T06:11:42.607Z,99334.03
2018-12-16T06:14:11.627Z,99343.08
2018-12-16T06:16:40.478Z,99336.83
2018-12-16T06:19:09.137Z,99341.09
2018-12-16T06:21:39.041Z,99338.92
2018-12-16T06:24:08.069Z,99344.91
2018-12-16T06:26:37.098Z,99337.45
2018-12-16T06:29:06.872Z,99342.68
2018-12-16T06:31:35.904Z,99363.23
2018-12-16T06:34:05.011Z,99366.76
2018-12-16T06:36:33.993Z,99381.73
2018-12-16T06:39:03.020Z,99381.62
2018-12-16T06:41:31.710Z,99376.78
2018-12-16T06:44:00.662Z,99381.05
2018-12-16T06:46:29.663Z,99381.67
2018-12-16T06:48:58.693Z,99372.52
2018-12-16T06:51:27.464Z,99382.70
2018-12-16T06:54:02.135Z,99391.01
2018-12-16T06:56:27.367Z,99389.38
2018-12-16T06:58:56.179Z,99381.41
2018-12-16T07:01:24.950Z,99387.16
2018-12-16T07:03:54.031Z,99387.94
2018-12-16T07:06:23.043Z,99386.02
2018-12-16T07:08:52.042Z,99388.12
2018-12-16T07:11:21.026Z,99381.92
2018-12-16T07:13:49.850Z,99385.34
2018-12-16T07:16:18.575Z,99383.18
2018-12-16T07:18:47.678Z,99378.80
2018-12-16T07:21:16.391Z,99371.31
2018-12-16T07:23:45.101Z,99358.84
2018-12-16T07:26:14.171Z,99360.08
2018-12-16T07:28:43.247Z,99364.40
2018-12-16T07:31:12.133Z,99362.86
2018-12-16T07:33:41.099Z,99364.54
2018-12-16T07:36:10.176Z,99367.83
2018-12-16T07:38:38.886Z,99368.02
2018-12-16T07:41:07.609Z,99364.11
2018-12-16T07:43:36.313Z,99370.77
2018-12-16T07:46:05.619Z,99364.96
2018-12-16T07:48:34.298Z,99371.97
2018-12-16T07:51:03.030Z,99369.88
2018-12-16T07:53:31.876Z,99371.90
2018-12-16T07:56:00.973Z,99377.45
2018-12-16T07:58:30.095Z,99372.92
2018-12-16T08:00:58.956Z,99375.42
2018-12-16T08:03:27.944Z,99369.00
2018-12-16T08:05:57.039Z,99380.95
2018-12-16T08:08:26.248Z,99383.29
2018-12-16T08:10:54.934Z,99378.45
2018-12-16T08:13:23.594Z,99378.05
2018-12-16T08:15:52.597Z,99380.27
2018-12-16T08:18:21.806Z,99375.21
2018-12-16T08:20:50.786Z,99375.03
2018-12-16T08:23:19.782Z,99373.52
2018-12-16T08:25:48.687Z,99369.40
2018-12-16T08:28:17.773Z,99366.20
2018-12-16T08:30:46.524Z,99367.05
2018-12-16T08:33:15.573Z,99365.19
2018-12-16T08:35:44.766Z,99360.73
2018-12-16T08:38:14.170Z,99350.59
2018-12-16T08:40:42.963Z,99351.09
2018-12-16T08:43:12.382Z,99349.20
2018-12-16T08:45:41.203Z,99350.75
2018-12-16T08:48:10.463Z,99353.10
2018-12-16T08:50:39.443Z,99358.96
2018-12-16T08:53:08.605Z,99359.48
2018-12-16T08:55:37.267Z,99361.19
2018-12-16T08:58:06.432Z,99354.36
2018-12-16T09:00:35.099Z,99348.94
2018-12-16T09:03:03.920Z,99342.72
2018-12-16T09:05:32.665Z,99354.36
2018-12-16T09:08:01.545Z,99352.87
2018-12-16T09:10:34.035Z,99346.45
2018-12-16T09:13:00.980Z,99344.31
2018-12-16T09:15:30.004Z,99339.20
2018-12-16T09:17:59.094Z,99339.07
2018-12-16T09:20:28.177Z,99334.41
2018-12-16T09:22:57.680Z,99338.61
2018-12-16T09:25:26.688Z,99337.60
2018-12-16T09:27:55.657Z,99321.88
2018-12-16T09:30:24.343Z,99314.73
2018-12-16T09:32:53.021Z,99311.20
2018-12-16T09:35:24.987Z,99311.89
2018-12-16T09:37:53.661Z,99316.90
2018-12-16T09:40:22.790Z,99315.59
2018-12-16T09:42:52.079Z,99321.23
2018-12-16T09:45:20.981Z,99309.95
2018-12-16T09:47:50.154Z,99295.47
2018-12-16T09:50:19.298Z,99300.25
2018-12-16T09:52:48.278Z,99293.21
2018-12-16T09:55:17.365Z,99282.71
2018-12-16T09:57:46.019Z,99276.59
2018-12-16T10:00:15.038Z,99273.22
2018-12-16T10:02:44.018Z,99277.06
2018-12-16T10:05:13.207Z,99273.91
2018-12-16T10:07:41.923Z,99263.52
2018-12-16T10:10:12.074Z,99261.55
2018-12-16T10:12:41.311Z,99257.09
2018-12-16T10:15:10.144Z,99260.18
2018-12-16T10:17:39.135Z,99264.97
2018-12-16T10:20:09.756Z,99257.69
2018-12-16T10:22:38.660Z,99253.13
2018-12-16T10:25:07.592Z,99251.33
2018-12-16T10:27:36.446Z,99252.18
2018-12-16T10:30:07.134Z,99254.70
2018-12-16T10:32:36.058Z,99245.98
2018-12-16T10:35:05.155Z,99241.52
2018-12-16T10:37:35.173Z,99239.30
2018-12-16T10:40:05.951Z,99241.00
2018-12-16T10:42:34.960Z,99240.34
2018-12-16T10:45:04.274Z,99232.19
2018-12-16T10:47:33.814Z,99223.86
2018-12-16T10:50:03.018Z,99218.09
2018-12-16T10:52:32.002Z,99218.91
2018-12-16T10:55:07.577Z,99224.19
2018-12-16T10:57:36.547Z,99229.95
2018-12-16T11:00:08.850Z,99229.50
2018-12-16T11:02:37.806Z,99221.86
2018-12-16T11:05:06.638Z,99219.62
2018-12-16T11:07:35.584Z,99219.10
2018-12-16T11:10:04.901Z,99215.95
2018-12-16T11:12:34.566Z,99208.48
2018-12-16T11:15:03.354Z,99210.94
2018-12-16T11:17:32.453Z,99214.98
2018-12-16T11:20:01.138Z,99213.50
2018-12-16T11:22:30.578Z,99215.52
2018-12-16T11:25:05.569Z,99225.09
2018-12-16T11:27:30.814Z,99230.72
2018-12-16T11:29:59.491Z,99235.80
2018-12-16T11:32:28.360Z,99221.97
2018-12-16T11:34:57.769Z,99222.86
2018-12-16T11:37:26.722Z,99221.16
2018-12-16T11:39:55.462Z,99219.34
2018-12-16T11:42:24.481Z,99226.40
2018-12-16T11:44:53.221Z,99224.13
2018-12-16T11:47:22.191Z,99218.88
2018-12-16T11:49:51.232Z,99219.91
2018-12-16T11:52:20.023Z,99227.98
2018-12-16T11:54:48.783Z,99228.17
2018-12-16T11:57:17.711Z,99230.14
2018-12-16T11:59:46.639Z,99230.28
2018-12-16T12:02:15.381Z,99236.55
2018-12-16T12:04:44.074Z,99234.38
2018-12-16T12:07:12.916Z,99228.34
2018-12-16T12:09:41.624Z,99233.98
2018-12-16T12:12:10.657Z,99231.50
2018-12-16T12:14:39.946Z,99231.89
2018-12-16T12:17:08.794Z,99227.11
2018-12-16T12:19:40.481Z,99233.85
2018-12-16T12:22:09.533Z,99232.47
2018-12-16T12:24:38.597Z,99239.69
2018-12-16T12:27:07.785Z,99237.59
2018-12-16T12:29:36.576Z,99235.89
2018-12-16T12:32:05.468Z,99240.15
2018-12-16T12:34:34.460Z,99240.02
2018-12-16T12:37:03.542Z,99246.90
2018-12-16T12:39:32.829Z,99239.56
2018-12-16T12:42:02.117Z,99246.11
2018-12-16T12:44:31.424Z,99253.45
2018-12-16T12:47:00.178Z,99257.68
2018-12-16T12:49:29.125Z,99266.73
2018-12-16T12:51:57.946Z,99272.76
2018-12-16T12:54:26.581Z,99281.09
2018-12-16T12:56:55.532Z,99284.50
2018-12-16T12:59:24.868Z,99287.77
2018-12-16T13:01:54.157Z,99294.77
2018-12-16T13:04:23.189Z,99306.56
2018-12-16T13:06:52.340Z,99307.97
2018-12-16T13:09:21.305Z,99310.02
2018-12-16T13:11:49.933Z,99322.25
2018-12-16T13:14:19.183Z,99317.90
2018-12-16T13:16:48.072Z,99321.80
2018-12-16T13:19:17.294Z,99317.73
2018-12-16T13:21:46.326Z,99329.30
2018-12-16T13:24:15.355Z,99319.73
2018-12-16T13:26:44.135Z,99337.16
2018-12-16T13:29:13.341Z,99345.91
2018-12-16T13:31:42.435Z,99348.37
2018-12-16T13:34:11.163Z,99350.64
2018-12-16T13:36:39.841Z,99364.67
2018-12-16T13:39:09.094Z,99366.10
2018-12-16T13:41:38.151Z,99360.64
2018-12-16T13:44:07.206Z,99357.78
2018-12-16T13:46:36.365Z,99364.83
2018-12-16T13:49:05.614Z,99366.30
2018-12-16T13:51:34.429Z,99367.72
2018-12-16T13:54:03.285Z,99370.83
2018-12-16T13:56:32.282Z,99367.93
2018-12-16T13:59:01.052Z,99378.13
2018-12-16T14:01:30.217Z,99376.94
2018-12-16T14:03:59.399Z,99373.98
2018-12-16T14:06:28.187Z,99376.73
2018-12-16T14:08:57.206Z,99376.45
2018-12-16T14:11:26.498Z,99396.04
2018-12-16T14:13:55.269Z,99393.92
2018-12-16T14:16:24.421Z,99389.61
2018-12-16T14:18:53.163Z,99392.73
2018-12-16T14:21:22.302Z,99394.59
2018-12-16T14:23:51.304Z,99402.06
2018-12-16T14:26:20.294Z,99402.02
2018-12-16T14:28:49.408Z,99399.50
2018-12-16T14:31:18.486Z,99415.23
2018-12-16T14:33:47.481Z,99407.89
2018-12-16T14:36:16.580Z,99420.45
2018-12-16T14:38:45.779Z,99408.39
2018-12-16T14:41:15.130Z,99419.78
2018-12-16T14:43:44.552Z,99417.17
2018-12-16T14:46:13.890Z,99420.64
2018-12-16T14:48:42.888Z,99423.25
2018-12-16T14:51:12.091Z,99430.34
2018-12-16T14:53:41.117Z,99435.24
2018-12-16T14:56:09.972Z,99433.94
2018-12-16T14:58:39.019Z,99433.64
2018-12-16T15:01:09.126Z,99428.91
2018-12-16T15:03:39.305Z,99453.89
2018-12-16T15:06:08.355Z,99443.59
2018-12-16T15:08:37.599Z,99448.00
2018-12-16T15:11:07.091Z,99452.01
2018-12-16T15:13:36.088Z,99454.30
2018-12-16T15:16:05.045Z,99446.11
2018-12-16T15:18:34.003Z,99440.62
2018-12-16T15:21:02.827Z,99448.00
2018-12-16T15:23:31.620Z,99436.79
2018-12-16T15:26:02.167Z,99447.67
2018-12-16T15:28:31.488Z,99452.84
2018-12-16T15:31:00.143Z,99457.11
2018-12-16T15:33:29.224Z,99468.53
2018-12-16T15:35:58.557Z,99481.13
2018-12-16T15:38:28.069Z,99479.41
2018-12-16T15:40:57.167Z,99479.00
2018-12-16T15:43:25.993Z,99482.42
2018-12-16T15:45:55.671Z,99487.73
2018-12-16T15:48:24.954Z,99488.26
2018-12-16T15:50:54.063Z,99485.61
2018-12-16T15:53:23.254Z,99489.92
2018-12-16T15:55:52.362Z,99488.78
2018-12-16T15:58:21.462Z,99500.11
2018-12-16T16:00:50.202Z,99497.55
2018-12-16T16:03:19.450Z,99501.12
2018-12-16T16:05:48.568Z,99503.37
2018-12-16T16:08:17.647Z,99531.23
2018-12-16T16:10:46.664Z,99526.47
2018-12-16T16:13:15.734Z,99525.80
2018-12-16T16:15:44.424Z,99519.61
2018-12-16T16:18:13.908Z,99521.33
2018-12-16T16:20:43.011Z,99527.03
2018-12-16T16:23:12.099Z,99525.80
2018-12-16T16:25:41.004Z,99528.48
2018-12-16T16:28:10.270Z,99521.96
2018-12-16T16:30:39.406Z,99528.92
2018-12-16T16:33:08.623Z,99533.28
2018-12-16T16:35:37.449Z,99538.91
2018-12-16T16:38:06.998Z,99531.61
2018-12-16T16:40:36.577Z,99534.18
2018-12-16T16:43:05.250Z,99545.91
2018-12-16T16:45:34.133Z,99544.13
2018-12-16T16:48:03.475Z,99542.00
2018-12-16T16:50:32.227Z,99548.92
2018-12-16T16:53:01.254Z,99551.09
2018-12-16T16:55:30.136Z,99551.42
2018-12-16T16:57:59.256Z,99564.49
2018-12-16T17:00:28.254Z,99572.24
2018-12-16T17:02:57.340Z,99575.63
2018-12-16T17:05:26.176Z,99574.78
2018-12-16T17:07:54.892Z,99574.33
2018-12-16T17:10:23.635Z,99582.19
2018-12-16T17:12:52.694Z,99588.22
2018-12-16T17:15:21.896Z,99580.77
2018-12-16T17:17:51.001Z,99581.19
2018-12-16T17:20:19.775Z,99582.86
2018-12-16T17:22:48.770Z,99592.92
2018-12-16T17:25:18.577Z,99586.40
2018-12-16T17:27:47.550Z,99597.31
2018-12-16T17:30:16.335Z,99590.31
2018-12-16T17:32:45.075Z,99594.97
2018-12-16T17:35:13.867Z,99604.17
2018-12-16T17:37:42.721Z,99607.59
2018-12-16T17:40:12.412Z,99615.38
2018-12-16T17:42:41.229Z,99618.81
2018-12-16T17:45:10.283Z,99619.63
2018-12-16T17:47:40.240Z,99622.77
2018-12-16T17:50:09.759Z,99616.27
2018-12-16T17:52:38.835Z,99617.13
2018-12-16T17:55:07.840Z,99614.97
2018-12-16T17:57:36.796Z,99616.65
2018-12-16T18:00:06.840Z,99617.58
2018-12-16T18:02:36.234Z,99613.16
2018-12-16T18:05:06.453Z,99614.80
2018-12-16T18:07:35.463Z,99617.36
2018-12-16T18:10:05.286Z,99617.22
2018-12-16T18:12:34.722Z,99613.71
2018-12-16T18:15:03.471Z,99608.53
2018-12-16T18:17:32.821Z,99624.18
2018-12-16T18:20:01.716Z,99615.13
2018-12-16T18:22:30.716Z,99620.83
2018-12-16T18:25:00.224Z,99619.94
2018-12-16T18:27:29.154Z,99622.58
2018-12-16T18:29:58.052Z,99645.78
2018-12-16T18:32:27.133Z,99660.61
2018-12-16T18:34:55.915Z,99652.92
2018-12-16T18:37:24.719Z,99651.28
2018-12-16T18:39:53.554Z,99656.08
2018-12-16T18:42:22.392Z,99665.76
2018-12-16T18:44:51.564Z,99667.95
2018-12-16T18:47:20.429Z,99674.25
2018-12-16T18:49:49.423Z,99672.53
2018-12-16T18:52:18.156Z,99685.25
2018-12-16T18:54:46.916Z,99690.49
2018-12-16T18:57:15.857Z,99684.01
2018-12-16T18:59:44.767Z,99693.61
2018-12-16T19:02:13.761Z,99697.19
2018-12-16T19:04:42.532Z,99702.11
2018-12-16T19:07:11.277Z,99699.48
2018-12-16T19:09:40.293Z,99710.45
2018-12-16T19:12:09.262Z,99712.26
2018-12-16T19:14:38.343Z,99710.55
2018-12-16T19:17:07.327Z,99703.61
2018-12-16T19:19:36.131Z,99706.66
2018-12-16T19:22:05.114Z,99727.06
2018-12-16T19:24:33.929Z,99721.88
2018-12-16T19:27:02.714Z,99716.70
2018-12-16T19:29:32.333Z,99723.23
2018-12-16T19:32:01.465Z,99731.96
2018-12-16T19:34:30.230Z,99723.27
2018-12-16T19:37:05.485Z,99736.28
2018-12-16T19:39:34.263Z,99735.87
2018-12-16T19:42:03.273Z,99742.41
2018-12-16T19:44:32.163Z,99744.59
2018-12-16T19:47:01.019Z,99742.98
2018-12-16T19:49:30.045Z,99738.63
2018-12-16T19:51:59.154Z,99734.70
2018-12-16T19:54:28.519Z,99733.01
2018-12-16T19:56:57.514Z,99745.14
2018-12-16T19:59:26.287Z,99742.53
2018-12-16T20:01:55.290Z,99749.62
2018-12-16T20:04:26.319Z,99741.78
2018-12-16T20:06:55.382Z,99747.43
2018-12-16T20:09:24.294Z,99747.88
2018-12-16T20:11:53.067Z,99750.01
2018-12-16T20:14:21.914Z,99745.32
2018-12-16T20:16:50.841Z,99745.34
2018-12-16T20:19:19.499Z,99748.41
2018-12-16T20:21:48.258Z,99745.81
2018-12-16T20:24:17.005Z,99742.34
2018-12-16T20:26:45.840Z,99743.73
2018-12-16T20:29:14.644Z,99739.83
2018-12-16T20:31:43.342Z,99738.52
2018-12-16T20:34:12.591Z,99747.19
2018-12-16T20:36:41.514Z,99753.67
2018-12-16T20:39:10.224Z,99754.55
2018-12-16T20:41:39.227Z,99768.47
2018-12-16T20:44:08.482Z,99756.77
2018-12-16T20:46:37.224Z,99762.80
2018-12-16T20:49:06.172Z,99773.67
2018-12-16T20:51:35.143Z,99778.45
2018-12-16T20:54:04.182Z,99778.89
2018-12-16T20:56:33.854Z,99772.36
2018-12-16T20:59:02.713Z,99787.09
2018-12-16T21:01:31.479Z,99784.91
2018-12-16T21:04:00.422Z,99778.34
2018-12-16T21:06:30.704Z,99779.66
2018-12-16T21:08:59.526Z,99777.05
2018-12-16T21:12:09.793Z,99785.26
2018-12-16T21:14:43.952Z,99783.14
2018-12-16T21:17:17.945Z,99778.41
2018-12-16T21:19:46.663Z,99779.19
2018-12-16T21:22:15.367Z,99778.77
2018-12-16T21:24:44.059Z,99779.28
2018-12-16T21:27:13.053Z,99778.94
2018-12-16T21:29:42.016Z,99777.59
2018-12-16T21:32:10.744Z,99780.17
2018-12-16T21:34:39.680Z,99778.81
2018-12-16T21:37:08.398Z,99771.42
2018-12-16T21:39:37.301Z,99777.55
2018-12-16T21:42:06.046Z,99774.47
2018-12-16T21:44:35.163Z,99769.66
2018-12-16T21:47:04.173Z,99773.66
2018-12-16T21:49:33.137Z,99772.73
2018-12-16T21:52:01.860Z,99764.42
2018-12-16T21:54:30.715Z,99773.09
2018-12-16T21:57:00.006Z,99764.89
2018-12-16T21:59:29.607Z,99770.50
2018-12-16T22:01:59.418Z,99770.47
2018-12-16T22:04:28.418Z,99759.17
2018-12-16T22:06:57.185Z,99762.63
2018-12-16T22:09:26.000Z,99767.84
2018-12-16T22:11:54.755Z,99776.52
2018-12-16T22:14:23.555Z,99773.86
2018-12-16T22:16:52.404Z,99779.09
2018-12-16T22:19:21.213Z,99769.64
2018-12-16T22:21:50.254Z,99764.84
2018-12-16T22:24:18.993Z,99765.29
2018-12-16T22:26:48.024Z,99769.59
2018-12-16T22:29:17.029Z,99771.67
2018-12-16T22:31:45.967Z,99763.02
2018-12-16T22:34:15.311Z,99758.68
2018-12-16T22:36:44.305Z,99748.29
2018-12-16T22:39:13.253Z,99750.95
2018-12-16T22:41:42.081Z,99740.89
2018-12-16T22:44:10.959Z,99739.98
2018-12-16T22:46:41.229Z,99741.29
2018-12-16T22:49:10.481Z,99733.89
2018-12-16T22:51:39.124Z,99726.94
2018-12-16T22:54:07.854Z,99723.01
2018-12-16T22:56:36.684Z,99724.23
2018-12-16T22:59:05.717Z,99728.97
2018-12-16T23:01:34.641Z,99726.81
2018-12-16T23:04:03.653Z,99721.59
2018-12-16T23:06:32.692Z,99720.72
2018-12-16T23:09:01.650Z,99718.91
2018-12-16T23:11:30.466Z,99717.58
2018-12-16T23:13:59.331Z,99720.13
2018-12-16T23:16:28.044Z,99713.14
2018-12-16T23:18:56.724Z,99720.48
2018-12-16T23:21:25.689Z,99726.11
2018-12-16T23:23:54.393Z,99734.29
2018-12-16T23:26:23.491Z,99730.83
2018-12-16T23:28:52.199Z,99731.69
2018-12-16T23:31:21.161Z,99741.27
2018-12-16T23:33:50.153Z,99738.61
2018-12-16T23:36:19.146Z,99736.36
2018-12-16T23:38:48.153Z,99741.98
2018-12-16T23:41:17.169Z,99741.58
2018-12-16T23:43:46.083Z,99743.77
2018-12-16T23:46:14.822Z,99742.49
2018-12-16T23:48:43.638Z,99744.20
2018-12-16T23:51:12.507Z,99749.06
2018-12-16T23:53:41.225Z,99749.84
2018-12-16T23:56:10.194Z,99754.63
2018-12-16T23:58:38.918Z,99757.23
